sensor_id;sensor_type;location;lat;lon;timestamp;pressure;altitude;pressure_sealevel;temperature;humidity
36980;BME280;22891;50.562;7.272;2023-02-15T00:21:55;101102.00;;;0.60;nan
36980;BME280;22891;50.562;7.272;2023-02-15T00:24:21;101028.00;;;0.51;nan
36980;BME280;22891;50.562;7.272;2023-02-15T00:26:47;101046.00;;;0.48;nan
36980;BME280;22891;50.562;7.272;2023-02-15T00:29:15;101123.00;;;0.44;nan
36980;BME280;22891;50.562;7.272;2023-02-15T00:31:42;101020.00;;;0.51;nan
36980;BME280;22891;50.562;7.272;2023-02-15T00:34:19;100945.00;;;0.43;nan
36980;BME280;22891;50.562;7.272;2023-02-15T00:36:46;101024.00;;;0.44;nan
36980;BME280;22891;50.562;7.272;2023-02-15T00:39:12;100919.00;;;0.46;nan
36980;BME280;22891;50.562;7.272;2023-02-15T00:41:39;100981.00;;;0.46;nan
36980;BME280;22891;50.562;7.272;2023-02-15T00:44:06;101069.00;;;0.40;nan
36980;BME280;22891;50.562;7.272;2023-02-15T00:46:32;101059.00;;;0.43;nan
36980;BME280;22891;50.562;7.272;2023-02-15T00:48:58;101058.00;;;0.44;nan
36980;BME280;22891;50.562;7.272;2023-02-15T00:51:24;101062.00;;;0.39;nan
36980;BME280;22891;50.562;7.272;2023-02-15T00:53:50;101068.00;;;0.39;nan
36980;BME280;22891;50.562;7.272;2023-02-15T00:56:16;101060.00;;;0.41;nan
36980;BME280;22891;50.562;7.272;2023-02-15T00:58:42;101054.00;;;0.40;nan
36980;BME280;22891;50.562;7.272;2023-02-15T01:01:11;101047.00;;;0.36;nan
36980;BME280;22891;50.562;7.272;2023-02-15T01:03:37;101062.00;;;0.42;nan
36980;BME280;22891;50.562;7.272;2023-02-15T01:06:04;101072.00;;;0.34;nan
36980;BME280;22891;50.562;7.272;2023-02-15T01:08:30;101038.00;;;0.31;nan
36980;BME280;22891;50.562;7.272;2023-02-15T01:10:56;101050.00;;;0.41;nan
36980;BME280;22891;50.562;7.272;2023-02-15T01:13:22;101037.00;;;0.45;nan
36980;BME280;22891;50.562;7.272;2023-02-15T01:15:55;101028.00;;;0.34;nan
36980;BME280;22891;50.562;7.272;2023-02-15T01:18:21;100993.00;;;0.31;nan
36980;BME280;22891;50.562;7.272;2023-02-15T01:20:48;101033.00;;;0.43;nan
36980;BME280;22891;50.562;7.272;2023-02-15T01:23:14;101036.00;;;0.39;nan
36980;BME280;22891;50.562;7.272;2023-02-15T01:25:40;101033.00;;;0.31;nan
36980;BME280;22891;50.562;7.272;2023-02-15T01:28:06;100987.00;;;0.43;nan
36980;BME280;22891;50.562;7.272;2023-02-15T01:30:32;100880.00;;;0.41;nan
36980;BME280;22891;50.562;7.272;2023-02-15T01:32:59;100743.00;;;0.37;nan
36980;BME280;22891;50.562;7.272;2023-02-15T01:35:28;100956.00;;;0.38;nan
36980;BME280;22891;50.562;7.272;2023-02-15T01:37:55;100975.00;;;0.43;nan
36980;BME280;22891;50.562;7.272;2023-02-15T01:40:22;100974.00;;;0.35;nan
36980;BME280;22891;50.562;7.272;2023-02-15T01:42:52;100976.00;;;0.43;nan
36980;BME280;22891;50.562;7.272;2023-02-15T01:45:24;100906.00;;;0.53;nan
36980;BME280;22891;50.562;7.272;2023-02-15T01:48:33;100913.00;;;0.55;nan
36980;BME280;22891;50.562;7.272;2023-02-15T01:51:01;100878.00;;;0.56;nan
36980;BME280;22891;50.562;7.272;2023-02-15T01:53:32;100948.00;;;0.63;nan
36980;BME280;22891;50.562;7.272;2023-02-15T01:56:03;100909.00;;;0.68;nan
36980;BME280;22891;50.562;7.272;2023-02-15T01:58:32;100941.00;;;0.81;nan
36980;BME280;22891;50.562;7.272;2023-02-15T02:01:00;100909.00;;;0.74;nan
36980;BME280;22891;50.562;7.272;2023-02-15T02:05:20;100937.00;;;0.60;nan
36980;BME280;22891;50.562;7.272;2023-02-15T02:07:46;100906.00;;;0.63;nan
36980;BME280;22891;50.562;7.272;2023-02-15T02:10:17;100886.00;;;0.63;nan
36980;BME280;22891;50.562;7.272;2023-02-15T02:12:45;100972.00;;;0.75;nan
36980;BME280;22891;50.562;7.272;2023-02-15T02:15:12;100931.00;;;0.69;nan
36980;BME280;22891;50.562;7.272;2023-02-15T02:20:17;100931.00;;;0.66;nan
36980;BME280;22891;50.562;7.272;2023-02-15T02:23:23;100942.00;;;0.72;nan
36980;BME280;22891;50.562;7.272;2023-02-15T02:29:23;101007.00;;;0.77;nan
36980;BME280;22891;50.562;7.272;2023-02-15T02:35:32;101036.00;;;0.76;nan
36980;BME280;22891;50.562;7.272;2023-02-15T02:38:54;100937.00;;;0.81;nan
36980;BME280;22891;50.562;7.272;2023-02-15T02:42:59;100950.00;;;0.86;nan
36980;BME280;22891;50.562;7.272;2023-02-15T02:45:32;100625.00;;;0.96;nan
36980;BME280;22891;50.562;7.272;2023-02-15T02:48:09;100906.00;;;0.78;nan
36980;BME280;22891;50.562;7.272;2023-02-15T02:50:39;100843.00;;;0.87;nan
36980;BME280;22891;50.562;7.272;2023-02-15T02:53:05;100747.00;;;0.92;nan
36980;BME280;22891;50.562;7.272;2023-02-15T02:55:45;100951.00;;;0.90;nan
36980;BME280;22891;50.562;7.272;2023-02-15T02:58:59;100934.00;;;0.80;nan
36980;BME280;22891;50.562;7.272;2023-02-15T03:01:32;100961.00;;;0.89;nan
36980;BME280;22891;50.562;7.272;2023-02-15T03:04:16;100974.00;;;0.88;nan
36980;BME280;22891;50.562;7.272;2023-02-15T03:06:52;100943.00;;;0.88;nan
36980;BME280;22891;50.562;7.272;2023-02-15T03:09:39;100969.00;;;0.84;nan
36980;BME280;22891;50.562;7.272;2023-02-15T03:12:52;100961.00;;;0.93;nan
36980;BME280;22891;50.562;7.272;2023-02-15T03:15:32;100923.00;;;0.82;nan
36980;BME280;22891;50.562;7.272;2023-02-15T03:19:15;100982.00;;;0.78;nan
36980;BME280;22891;50.562;7.272;2023-02-15T03:21:49;100990.00;;;0.92;nan
36980;BME280;22891;50.562;7.272;2023-02-15T03:24:25;100986.00;;;0.86;nan
36980;BME280;22891;50.562;7.272;2023-02-15T03:26:54;101006.00;;;0.86;nan
36980;BME280;22891;50.562;7.272;2023-02-15T03:29:23;100999.00;;;0.76;nan
36980;BME280;22891;50.562;7.272;2023-02-15T03:31:54;101004.00;;;0.81;nan
36980;BME280;22891;50.562;7.272;2023-02-15T03:34:22;101008.00;;;1.07;nan
36980;BME280;22891;50.562;7.272;2023-02-15T03:37:00;101006.00;;;0.87;nan
36980;BME280;22891;50.562;7.272;2023-02-15T03:45:32;101014.00;;;0.84;nan
36980;BME280;22891;50.562;7.272;2023-02-15T03:48:00;101004.00;;;0.69;nan
36980;BME280;22891;50.562;7.272;2023-02-15T03:50:30;101001.00;;;0.83;nan
36980;BME280;22891;50.562;7.272;2023-02-15T03:53:18;101006.00;;;0.67;nan
36980;BME280;22891;50.562;7.272;2023-02-15T03:55:50;100998.00;;;0.50;nan
36980;BME280;22891;50.562;7.272;2023-02-15T03:58:18;100985.00;;;0.67;nan
36980;BME280;22891;50.562;7.272;2023-02-15T04:01:16;100990.00;;;0.61;nan
36980;BME280;22891;50.562;7.272;2023-02-15T04:04:09;100980.00;;;0.65;nan
36980;BME280;22891;50.562;7.272;2023-02-15T04:06:38;100983.00;;;0.66;nan
36980;BME280;22891;50.562;7.272;2023-02-15T04:09:04;100997.00;;;0.62;nan
36980;BME280;22891;50.562;7.272;2023-02-15T04:11:48;101006.00;;;0.51;nan
36980;BME280;22891;50.562;7.272;2023-02-15T04:14:14;101000.00;;;0.58;nan
36980;BME280;22891;50.562;7.272;2023-02-15T04:16:58;100991.00;;;0.70;nan
36980;BME280;22891;50.562;7.272;2023-02-15T04:19:24;100984.00;;;0.79;nan
36980;BME280;22891;50.562;7.272;2023-02-15T04:22:08;100992.00;;;0.68;nan
36980;BME280;22891;50.562;7.272;2023-02-15T04:24:52;100990.00;;;0.70;nan
36980;BME280;22891;50.562;7.272;2023-02-15T04:27:36;100999.00;;;0.66;nan
36980;BME280;22891;50.562;7.272;2023-02-15T04:30:02;100993.00;;;0.78;nan
36980;BME280;22891;50.562;7.272;2023-02-15T04:32:28;100967.00;;;0.93;nan
36980;BME280;22891;50.562;7.272;2023-02-15T04:34:54;100968.00;;;0.84;nan
36980;BME280;22891;50.562;7.272;2023-02-15T04:37:20;100991.00;;;0.86;nan
36980;BME280;22891;50.562;7.272;2023-02-15T04:39:46;100956.00;;;0.78;nan
36980;BME280;22891;50.562;7.272;2023-02-15T04:42:11;100899.00;;;0.71;nan
36980;BME280;22891;50.562;7.272;2023-02-15T04:44:37;100981.00;;;0.77;nan
36980;BME280;22891;50.562;7.272;2023-02-15T04:47:03;100949.00;;;0.79;nan
36980;BME280;22891;50.562;7.272;2023-02-15T04:49:28;100968.00;;;0.72;nan
36980;BME280;22891;50.562;7.272;2023-02-15T04:51:54;101006.00;;;0.86;nan
36980;BME280;22891;50.562;7.272;2023-02-15T04:54:20;100995.00;;;0.88;nan
36980;BME280;22891;50.562;7.272;2023-02-15T04:56:45;100976.00;;;0.89;nan
36980;BME280;22891;50.562;7.272;2023-02-15T04:59:12;100980.00;;;0.82;nan
36980;BME280;22891;50.562;7.272;2023-02-15T05:01:38;100970.00;;;0.92;nan
36980;BME280;22891;50.562;7.272;2023-02-15T05:04:04;100983.00;;;0.84;nan
36980;BME280;22891;50.562;7.272;2023-02-15T05:06:29;100985.00;;;0.76;nan
36980;BME280;22891;50.562;7.272;2023-02-15T05:08:55;100956.00;;;0.74;nan
36980;BME280;22891;50.562;7.272;2023-02-15T05:11:21;101007.00;;;0.74;nan
36980;BME280;22891;50.562;7.272;2023-02-15T05:13:47;101023.00;;;0.69;nan
36980;BME280;22891;50.562;7.272;2023-02-15T05:16:12;101018.00;;;0.68;nan
36980;BME280;22891;50.562;7.272;2023-02-15T05:18:38;100956.00;;;0.68;nan
36980;BME280;22891;50.562;7.272;2023-02-15T05:21:04;100962.00;;;0.57;nan
36980;BME280;22891;50.562;7.272;2023-02-15T05:23:29;101035.00;;;0.69;nan
36980;BME280;22891;50.562;7.272;2023-02-15T05:25:55;101028.00;;;0.71;nan
36980;BME280;22891;50.562;7.272;2023-02-15T05:28:39;101021.00;;;0.61;nan
36980;BME280;22891;50.562;7.272;2023-02-15T05:31:07;101025.00;;;0.63;nan
36980;BME280;22891;50.562;7.272;2023-02-15T05:33:35;101024.00;;;0.65;nan
36980;BME280;22891;50.562;7.272;2023-02-15T05:36:04;100891.00;;;0.57;nan
36980;BME280;22891;50.562;7.272;2023-02-15T05:38:30;100987.00;;;0.82;nan
36980;BME280;22891;50.562;7.272;2023-02-15T05:40:56;100995.00;;;0.79;nan
36980;BME280;22891;50.562;7.272;2023-02-15T05:43:22;101001.00;;;0.67;nan
36980;BME280;22891;50.562;7.272;2023-02-15T05:45:50;100984.00;;;0.63;nan
36980;BME280;22891;50.562;7.272;2023-02-15T05:48:17;100995.00;;;0.61;nan
36980;BME280;22891;50.562;7.272;2023-02-15T05:50:43;100983.00;;;0.53;nan
36980;BME280;22891;50.562;7.272;2023-02-15T05:53:09;100976.00;;;0.52;nan
36980;BME280;22891;50.562;7.272;2023-02-15T05:55:38;100977.00;;;0.45;nan
36980;BME280;22891;50.562;7.272;2023-02-15T05:58:05;100988.00;;;0.53;nan
36980;BME280;22891;50.562;7.272;2023-02-15T06:00:31;100952.00;;;0.66;nan
36980;BME280;22891;50.562;7.272;2023-02-15T06:02:57;100880.00;;;0.63;nan
36980;BME280;22891;50.562;7.272;2023-02-15T06:05:22;100896.00;;;0.57;nan
36980;BME280;22891;50.562;7.272;2023-02-15T06:07:48;100918.00;;;0.51;nan
36980;BME280;22891;50.562;7.272;2023-02-15T06:10:14;100961.00;;;0.49;nan
36980;BME280;22891;50.562;7.272;2023-02-15T06:12:44;101008.00;;;0.56;nan
36980;BME280;22891;50.562;7.272;2023-02-15T06:17:36;101014.00;;;0.47;nan
36980;BME280;22891;50.562;7.272;2023-02-15T06:20:02;100994.00;;;0.48;nan
36980;BME280;22891;50.562;7.272;2023-02-15T06:22:28;100990.00;;;0.42;nan
36980;BME280;22891;50.562;7.272;2023-02-15T06:24:54;100990.00;;;0.42;nan
36980;BME280;22891;50.562;7.272;2023-02-15T06:27:20;100907.00;;;0.42;nan
36980;BME280;22891;50.562;7.272;2023-02-15T06:29:45;100993.00;;;0.41;nan
36980;BME280;22891;50.562;7.272;2023-02-15T06:32:11;100792.00;;;0.41;nan
36980;BME280;22891;50.562;7.272;2023-02-15T06:34:37;100777.00;;;0.48;nan
36980;BME280;22891;50.562;7.272;2023-02-15T06:37:03;100761.00;;;0.41;nan
36980;BME280;22891;50.562;7.272;2023-02-15T06:39:28;100778.00;;;0.36;nan
36980;BME280;22891;50.562;7.272;2023-02-15T06:41:54;100797.00;;;0.26;nan
36980;BME280;22891;50.562;7.272;2023-02-15T06:44:19;100766.00;;;0.35;nan
36980;BME280;22891;50.562;7.272;2023-02-15T06:46:45;100787.00;;;0.35;nan
36980;BME280;22891;50.562;7.272;2023-02-15T06:49:11;100845.00;;;0.39;nan
36980;BME280;22891;50.562;7.272;2023-02-15T06:51:36;100882.00;;;0.33;nan
36980;BME280;22891;50.562;7.272;2023-02-15T06:54:02;100857.00;;;0.34;nan
36980;BME280;22891;50.562;7.272;2023-02-15T06:56:29;100856.00;;;0.36;nan
36980;BME280;22891;50.562;7.272;2023-02-15T06:58:55;100845.00;;;0.36;nan
36980;BME280;22891;50.562;7.272;2023-02-15T07:01:21;100859.00;;;0.35;nan
36980;BME280;22891;50.562;7.272;2023-02-15T07:03:47;100939.00;;;0.49;nan
36980;BME280;22891;50.562;7.272;2023-02-15T07:06:13;100952.00;;;0.38;nan
36980;BME280;22891;50.562;7.272;2023-02-15T07:08:39;100945.00;;;0.49;nan
36980;BME280;22891;50.562;7.272;2023-02-15T07:11:05;100924.00;;;0.52;nan
36980;BME280;22891;50.562;7.272;2023-02-15T07:13:50;100788.00;;;0.32;nan
36980;BME280;22891;50.562;7.272;2023-02-15T07:16:18;100799.00;;;0.39;nan
36980;BME280;22891;50.562;7.272;2023-02-15T07:18:44;100777.00;;;0.35;nan
36980;BME280;22891;50.562;7.272;2023-02-15T07:21:09;100758.00;;;0.45;nan
36980;BME280;22891;50.562;7.272;2023-02-15T07:23:36;100760.00;;;0.47;nan
36980;BME280;22891;50.562;7.272;2023-02-15T07:26:03;100752.00;;;0.58;nan
36980;BME280;22891;50.562;7.272;2023-02-15T07:28:30;100756.00;;;0.47;nan
36980;BME280;22891;50.562;7.272;2023-02-15T07:30:55;100750.00;;;0.44;nan
36980;BME280;22891;50.562;7.272;2023-02-15T07:33:23;100866.00;;;0.48;nan
36980;BME280;22891;50.562;7.272;2023-02-15T07:35:54;100915.00;;;0.53;nan
36980;BME280;22891;50.562;7.272;2023-02-15T07:38:20;100884.00;;;0.62;nan
36980;BME280;22891;50.562;7.272;2023-02-15T07:40:47;100912.00;;;0.70;nan
36980;BME280;22891;50.562;7.272;2023-02-15T07:43:13;100887.00;;;0.77;nan
36980;BME280;22891;50.562;7.272;2023-02-15T07:45:40;100912.00;;;0.79;nan
36980;BME280;22891;50.562;7.272;2023-02-15T07:48:06;100894.00;;;0.81;nan
36980;BME280;22891;50.562;7.272;2023-02-15T07:50:32;100885.00;;;0.91;nan
36980;BME280;22891;50.562;7.272;2023-02-15T07:52:58;100874.00;;;1.03;nan
36980;BME280;22891;50.562;7.272;2023-02-15T07:55:24;100886.00;;;1.06;nan
36980;BME280;22891;50.562;7.272;2023-02-15T07:57:50;100883.00;;;0.89;nan
36980;BME280;22891;50.562;7.272;2023-02-15T08:00:19;100887.00;;;0.92;nan
36980;BME280;22891;50.562;7.272;2023-02-15T08:02:51;100866.00;;;0.82;nan
36980;BME280;22891;50.562;7.272;2023-02-15T08:05:43;100840.00;;;0.73;nan
36980;BME280;22891;50.562;7.272;2023-02-15T08:08:10;100836.00;;;0.86;nan
36980;BME280;22891;50.562;7.272;2023-02-15T08:11:37;100874.00;;;0.99;nan
36980;BME280;22891;50.562;7.272;2023-02-15T08:14:14;100851.00;;;1.04;nan
36980;BME280;22891;50.562;7.272;2023-02-15T08:16:45;100842.00;;;1.14;nan
36980;BME280;22891;50.562;7.272;2023-02-15T08:19:14;100854.00;;;0.94;nan
36980;BME280;22891;50.562;7.272;2023-02-15T08:21:42;100977.00;;;0.87;nan
36980;BME280;22891;50.562;7.272;2023-02-15T08:24:09;100992.00;;;0.80;nan
36980;BME280;22891;50.562;7.272;2023-02-15T08:26:35;101011.00;;;0.95;nan
36980;BME280;22891;50.562;7.272;2023-02-15T08:29:02;101015.00;;;0.88;nan
36980;BME280;22891;50.562;7.272;2023-02-15T08:33:55;100752.00;;;0.98;nan
36980;BME280;22891;50.562;7.272;2023-02-15T08:36:23;100807.00;;;1.03;nan
36980;BME280;22891;50.562;7.272;2023-02-15T08:53:57;100355.00;;;1.23;nan
36980;BME280;22891;50.562;7.272;2023-02-15T08:56:25;100663.00;;;1.25;nan
36980;BME280;22891;50.562;7.272;2023-02-15T08:58:52;100732.00;;;1.29;nan
36980;BME280;22891;50.562;7.272;2023-02-15T09:01:29;100767.00;;;1.31;nan
36980;BME280;22891;50.562;7.272;2023-02-15T09:03:58;100665.00;;;1.51;nan
36980;BME280;22891;50.562;7.272;2023-02-15T09:06:25;100693.00;;;1.40;nan
36980;BME280;22891;50.562;7.272;2023-02-15T09:08:51;100674.00;;;1.50;nan
36980;BME280;22891;50.562;7.272;2023-02-15T09:11:20;100683.00;;;1.49;nan
36980;BME280;22891;50.562;7.272;2023-02-15T09:21:31;101044.00;;;1.72;nan
36980;BME280;22891;50.562;7.272;2023-02-15T09:26:27;100740.00;;;2.14;nan
36980;BME280;22891;50.562;7.272;2023-02-15T09:28:56;100634.00;;;2.16;nan
36980;BME280;22891;50.562;7.272;2023-02-15T09:31:25;100691.00;;;2.10;nan
36980;BME280;22891;50.562;7.272;2023-02-15T09:33:51;101015.00;;;2.24;nan
36980;BME280;22891;50.562;7.272;2023-02-15T09:36:32;101019.00;;;2.36;nan
36980;BME280;22891;50.562;7.272;2023-02-15T09:46:26;100935.00;;;2.88;nan
36980;BME280;22891;50.562;7.272;2023-02-15T09:55:38;101415.00;;;5.47;nan
36980;BME280;22891;50.562;7.272;2023-02-15T10:03:04;101650.00;;;4.85;nan
36980;BME280;22891;50.562;7.272;2023-02-15T19:59:48;101693.00;;;9.73;nan
